Airfield :
LOGIN :

Register | Disclaimer

   EN    FR    IT 

 










Legend :    VFR   Marginal VFR   IFR   Intensive IFR   Very Intensive IFR
Visi :
Ceiling :
>= 8 km
>= 3000ft
5 to 8 km
1000 to 3000 ft
1500m to 5 km
500 to 1000 ft
800 to 1500m
200 to 500 ft
< 800m
< 200 ft
Symbols :   Thunderstorms  Fog  Heavy snow  Heavy precipitations  Wind > 20 kt
SIGMETs :     Misc.  Thunderstorms  Icing  Turbulence  Mountain Waves  Volcanic Ashes






- Airport Elevation : 268 ft
- IATA code : BFS


EGAA - Belfast Aldergrove

CURRENT METAR :
  • 191750Z AUTO 28014KT 9999 NCD 17/07 Q1011

EXPIRED METARs :
  • 191720Z AUTO 27015KT 9999 NCD 18/07 Q1011
  • 191650Z AUTO 27016KT 9999 NCD 18/07 Q1011
  • 191620Z AUTO 26018KT 9999 FEW037 18/08 Q1011
  • 191550Z AUTO 27018KT 250V310 9999 SCT038 18/10 Q1011
  • 191520Z AUTO 27017KT 9999 BKN043/// //////CB 17/12 Q1010

TAF TAF EGAA
Valid from the 19 at 18:00 until the 20 at 18:00 UTC


191658Z 1918/2018 26010KT 9999 FEW025 SCT040
BECMG 1921/1924 19010KT
TEMPO 2000/2009 BKN012
BECMG 2002/2005 21017G27KT
TEMPO 2002/2010 7000 RA -RADZ
PROB40
TEMPO 2007/2009 3000 +RA +SHRA
BECMG 2009/2012 26012KT



MET'MAP, your aeronautical weather chart ! - Copyright ORBIFLY December 2007 - Disclaimer

ORBIFLY MET'MAP TEAM :

Programming & Development : Alexandra Zaïnal
Original concept : Baudouin d'Aumeries
Technical & hardware support : Manuel Goepfert
Assistance : Marc-Olivier Méhu




SOURCES & CREDITS :

   NOAA